createdAt,value
2022-08-19T00:04:00.969Z,3.47
2022-08-19T00:09:06.394Z,3.60
2022-08-19T00:14:12.394Z,3.75
2022-08-19T00:19:16.009Z,3.10
2022-08-19T00:24:18.794Z,3.58
2022-08-19T00:29:23.869Z,3.75
2022-08-19T00:34:28.861Z,3.60
2022-08-19T00:39:31.879Z,3.63
2022-08-19T00:44:36.488Z,3.53
2022-08-19T00:54:47.022Z,3.75
2022-08-19T01:00:02.704Z,4.03
2022-08-19T01:05:11.253Z,3.67
2022-08-19T01:10:16.807Z,3.88
2022-08-19T01:15:25.450Z,4.60
2022-08-19T01:20:28.309Z,4.00
2022-08-19T01:25:37.969Z,4.95
2022-08-19T01:30:44.376Z,4.20
2022-08-19T01:35:54.020Z,3.95
2022-08-19T01:40:58.318Z,3.85
2022-08-19T01:46:01.630Z,3.95
2022-08-19T01:51:04.809Z,4.65
2022-08-19T01:56:09.239Z,4.20
2022-08-19T02:01:12.364Z,4.40
2022-08-19T02:06:15.510Z,4.32
2022-08-19T02:11:27.450Z,4.85
2022-08-19T02:16:31.279Z,3.78
2022-08-19T02:21:34.653Z,4.63
2022-08-19T02:26:38.838Z,5.07
2022-08-19T02:31:42.494Z,5.45
2022-08-19T02:36:45.311Z,3.83
2022-08-19T02:41:55.801Z,4.40
2022-08-19T02:46:58.617Z,4.65
2022-08-19T02:52:01.426Z,4.85
2022-08-19T02:57:07.027Z,5.05
2022-08-19T03:02:09.814Z,4.10
2022-08-19T03:07:15.829Z,3.67
2022-08-19T03:12:19.982Z,3.55
2022-08-19T03:17:22.868Z,3.20
2022-08-19T03:22:26.357Z,3.33
2022-08-19T03:27:34.434Z,3.63
2022-08-19T03:32:37.527Z,3.20
2022-08-19T03:37:48.283Z,4.07
2022-08-19T03:42:52.445Z,3.05
2022-08-19T03:47:55.506Z,3.37
2022-08-19T03:52:58.272Z,3.13
2022-08-19T03:58:02.428Z,3.38
2022-08-19T04:03:05.273Z,3.30
2022-08-19T04:08:13.271Z,4.00
2022-08-19T04:13:19.125Z,3.20
2022-08-19T04:18:21.874Z,3.47
2022-08-19T04:23:25.436Z,3.53
2022-08-19T04:28:29.984Z,3.55
2022-08-19T04:33:34.400Z,3.67
2022-08-19T04:38:37.221Z,4.25
2022-08-19T04:43:41.329Z,4.35
2022-08-19T04:48:49.385Z,4.20
2022-08-19T04:53:53.327Z,4.57
2022-08-19T04:58:58.853Z,4.25
2022-08-19T05:04:02.552Z,3.97
2022-08-19T05:09:07.365Z,3.97
2022-08-19T05:19:42.087Z,3.78
2022-08-19T05:25:09.207Z,4.03
2022-08-19T05:30:10.253Z,3.80
2022-08-19T05:35:13.311Z,4.05
2022-08-19T05:40:16.185Z,3.63
2022-08-19T05:45:22.500Z,4.13
2022-08-19T05:50:26.298Z,4.22
2022-08-19T05:55:29.077Z,4.53
2022-08-19T06:00:33.272Z,4.63
2022-08-19T06:05:42.335Z,4.45
2022-08-19T06:10:52.437Z,4.05
2022-08-19T06:15:56.593Z,4.35
2022-08-19T06:20:59.398Z,4.40
2022-08-19T06:26:02.176Z,3.28
2022-08-19T06:31:09.852Z,3.72
2022-08-19T06:36:19.789Z,3.45
2022-08-19T06:41:22.551Z,4.13
2022-08-19T06:46:27.361Z,4.43
2022-08-19T06:56:35.726Z,5.95
2022-08-19T07:01:42.799Z,5.20
2022-08-19T07:06:46.080Z,5.20
2022-08-19T07:11:58.442Z,6.07
2022-08-19T07:17:04.142Z,6.03
2022-08-19T07:22:08.865Z,6.40
2022-08-19T07:27:16.993Z,6.88
2022-08-19T07:32:21.129Z,7.53
2022-08-19T07:37:23.923Z,7.28
2022-08-19T07:42:27.649Z,8.65
2022-08-19T07:47:49.716Z,9.60
2022-08-19T07:52:53.844Z,8.57
2022-08-19T07:57:56.726Z,7.88
2022-08-19T08:03:00.872Z,8.57
2022-08-19T08:08:21.129Z,6.55
2022-08-19T08:13:30.581Z,7.07
2022-08-19T08:18:42.309Z,6.77
2022-08-19T08:23:45.149Z,6.30
2022-08-19T08:28:49.515Z,5.75
2022-08-19T08:49:26.127Z,4.40
2022-08-19T08:54:34.934Z,4.20
2022-08-19T08:59:42.322Z,4.03
2022-08-19T09:04:46.829Z,4.60
2022-08-19T09:09:56.183Z,4.68
2022-08-19T09:15:02.329Z,4.63
2022-08-19T09:20:15.986Z,4.68
2022-08-19T09:25:24.762Z,4.70
2022-08-19T09:30:32.455Z,4.20
2022-08-19T09:35:50.207Z,5.05
2022-08-19T09:40:56.578Z,4.70
2022-08-19T09:46:02.129Z,4.60
2022-08-19T09:51:08.948Z,5.07
2022-08-19T09:56:15.721Z,4.60
2022-08-19T10:01:25.820Z,5.00
2022-08-19T10:06:42.009Z,4.75
2022-08-19T10:11:54.699Z,4.85
2022-08-19T10:16:59.359Z,4.70
2022-08-19T10:22:05.293Z,5.35
2022-08-19T10:27:14.180Z,5.25
2022-08-19T10:32:18.908Z,5.03
2022-08-19T10:37:49.794Z,5.15
2022-08-19T10:43:00.476Z,5.88
2022-08-19T10:48:03.244Z,5.28
2022-08-19T10:53:10.415Z,5.75
2022-08-19T10:58:14.947Z,5.88
2022-08-19T11:03:17.738Z,5.60
2022-08-19T11:08:23.715Z,5.80
2022-08-19T11:13:27.290Z,5.28
2022-08-19T11:18:30.409Z,4.97
2022-08-19T11:23:34.653Z,4.97
2022-08-19T11:28:38.317Z,4.72
2022-08-19T11:33:41.313Z,5.40
2022-08-19T11:38:46.059Z,5.95
2022-08-19T11:43:48.931Z,5.00
2022-08-19T11:48:51.779Z,6.55
2022-08-19T11:53:57.417Z,5.70
2022-08-19T11:59:00.569Z,5.20
2022-08-19T12:04:05.316Z,5.65
2022-08-19T12:09:11.797Z,4.97
2022-08-19T12:14:15.283Z,6.30
2022-08-19T12:19:21.966Z,5.07
2022-08-19T12:24:26.863Z,5.00
2022-08-19T12:34:34.223Z,6.28
2022-08-19T12:39:40.531Z,6.40
2022-08-19T12:44:45.572Z,5.90
2022-08-19T12:49:55.158Z,6.25
2022-08-19T12:54:59.997Z,6.57
2022-08-19T13:05:10.928Z,7.32
2022-08-19T13:10:17.953Z,7.75
2022-08-19T13:15:24.113Z,7.90
2022-08-19T13:20:27.532Z,7.85
2022-08-19T13:25:32.172Z,7.43
2022-08-19T13:30:52.323Z,7.85
2022-08-19T13:36:01.453Z,7.38
2022-08-19T13:41:13.261Z,7.28
2022-08-19T13:46:17.845Z,7.18
2022-08-19T13:51:20.843Z,7.82
2022-08-19T13:56:26.497Z,7.18
2022-08-19T14:01:31.189Z,7.30
2022-08-19T14:06:34.118Z,8.68
2022-08-19T14:11:39.085Z,8.60
2022-08-19T14:16:41.895Z,7.75
2022-08-19T14:21:44.825Z,7.30
2022-08-19T14:26:49.003Z,8.40
2022-08-19T14:31:51.793Z,8.60
2022-08-19T14:36:54.737Z,8.50
2022-08-19T14:42:00.092Z,9.25
2022-08-19T14:47:03.561Z,9.32
2022-08-19T14:52:07.626Z,8.90
2022-08-19T14:57:13.608Z,10.17
2022-08-19T15:02:33.765Z,9.52
2022-08-19T15:07:38.151Z,11.18
2022-08-19T15:12:43.444Z,10.32
2022-08-19T15:17:47.408Z,12.35
2022-08-19T15:22:50.374Z,12.60
2022-08-19T15:27:54.886Z,12.70
2022-08-19T15:32:59.781Z,14.32
2022-08-19T15:38:02.668Z,13.60
2022-08-19T15:43:06.977Z,12.93
2022-08-19T15:48:09.801Z,13.18
2022-08-19T15:53:12.822Z,12.48
2022-08-19T15:58:34.467Z,12.43
2022-08-19T16:03:54.758Z,13.25
2022-08-19T16:08:59.430Z,12.65
2022-08-19T16:14:04.030Z,13.07
2022-08-19T16:19:10.611Z,12.43
2022-08-19T16:24:17.654Z,12.25
2022-08-19T16:29:34.675Z,11.75
2022-08-19T16:34:43.069Z,10.48
2022-08-19T16:39:45.962Z,9.87
2022-08-19T16:44:50.121Z,9.50
2022-08-19T16:54:58.374Z,11.07
2022-08-19T17:00:08.253Z,10.77
2022-08-19T17:05:11.343Z,10.38
2022-08-19T17:10:14.173Z,11.13
2022-08-19T17:15:18.392Z,11.35
2022-08-19T17:25:24.271Z,11.65
2022-08-19T17:30:28.697Z,11.13
2022-08-19T17:35:32.551Z,11.52
2022-08-19T17:40:35.657Z,12.07
2022-08-19T17:45:42.156Z,11.80
2022-08-19T17:50:45.122Z,11.13
2022-08-19T17:55:50.689Z,11.85
2022-08-19T18:00:55.466Z,15.07
2022-08-19T18:05:58.581Z,12.73
2022-08-19T18:11:01.673Z,17.05
2022-08-19T18:16:08.921Z,15.23
2022-08-19T18:21:12.273Z,15.07
2022-08-19T18:26:15.080Z,12.27
2022-08-19T18:31:19.386Z,11.85
2022-08-19T18:36:50.040Z,12.55
2022-08-19T18:42:02.961Z,10.35
2022-08-19T18:47:24.573Z,15.40
2022-08-19T18:52:27.329Z,11.73
2022-08-19T18:57:30.285Z,12.63
2022-08-19T19:02:38.937Z,12.18
2022-08-19T19:07:42.841Z,11.93
2022-08-19T19:12:45.853Z,10.67
2022-08-19T19:17:50.041Z,11.68
2022-08-19T19:22:53.691Z,14.38
2022-08-19T19:28:00.970Z,13.85
2022-08-19T19:33:05.435Z,10.35
2022-08-19T19:38:08.251Z,10.70
2022-08-19T19:43:11.041Z,10.30
2022-08-19T19:48:16.262Z,10.82
2022-08-19T19:53:19.073Z,10.70
2022-08-19T19:58:28.590Z,11.07
2022-08-19T20:03:33.657Z,10.10
2022-08-19T20:08:54.463Z,10.15
2022-08-19T20:13:57.290Z,9.77
2022-08-19T20:19:02.596Z,11.30
2022-08-19T20:24:09.324Z,9.43
2022-08-19T20:29:38.514Z,10.23
2022-08-19T20:34:37.211Z,10.32
2022-08-19T20:39:40.144Z,12.57
2022-08-19T20:44:42.992Z,10.02
2022-08-19T20:49:47.290Z,9.70
2022-08-19T20:54:50.294Z,9.52
2022-08-19T20:59:53.100Z,9.68
2022-08-19T21:04:59.051Z,9.40
2022-08-19T21:10:06.800Z,9.70
2022-08-19T21:15:10.350Z,9.13
2022-08-19T21:20:14.590Z,9.32
2022-08-19T21:25:18.063Z,8.98
2022-08-19T21:30:20.838Z,10.00
2022-08-19T21:35:25.055Z,9.70
2022-08-19T21:40:28.445Z,9.30
2022-08-19T21:45:31.257Z,9.98
2022-08-19T21:50:35.429Z,9.93
2022-08-19T21:55:38.307Z,11.38
2022-08-19T22:00:41.133Z,10.25
2022-08-19T22:05:45.985Z,11.77
2022-08-19T22:10:49.666Z,11.38
2022-08-19T22:15:52.595Z,10.60
2022-08-19T22:20:56.757Z,10.52
2022-08-19T22:25:59.614Z,11.57
2022-08-19T22:31:03.427Z,12.32
2022-08-19T22:36:08.876Z,11.43
2022-08-19T22:41:12.600Z,10.52
2022-08-19T22:46:17.597Z,11.07
2022-08-19T22:51:39.466Z,9.88
2022-08-19T22:56:43.359Z,9.55
2022-08-19T23:01:47.090Z,11.33
2022-08-19T23:06:52.808Z,11.47
2022-08-19T23:11:55.869Z,12.23
2022-08-19T23:16:59.320Z,12.77
2022-08-19T23:22:05.207Z,11.43
2022-08-19T23:27:25.335Z,8.90
2022-08-19T23:32:28.154Z,7.78
2022-08-19T23:37:32.322Z,9.75
2022-08-19T23:42:35.294Z,8.60
2022-08-19T23:47:40.641Z,10.63
2022-08-19T23:52:47.806Z,10.93
2022-08-19T23:57:50.928Z,12.35
